sensor_id;sensor_type;location;lat;lon;timestamp;P1;durP1;ratioP1;P2;durP2;ratioP2
15112;SDS011;7657;50.140;7.076;2022-12-24T00:01:21;19.07;;;8.20;;
15112;SDS011;7657;50.140;7.076;2022-12-24T00:03:48;11.73;;;4.55;;
15112;SDS011;7657;50.140;7.076;2022-12-24T00:06:16;13.43;;;3.42;;
15112;SDS011;7657;50.140;7.076;2022-12-24T00:08:45;16.93;;;7.37;;
15112;SDS011;7657;50.140;7.076;2022-12-24T00:11:12;12.48;;;3.67;;
15112;SDS011;7657;50.140;7.076;2022-12-24T00:13:39;9.68;;;2.70;;
15112;SDS011;7657;50.140;7.076;2022-12-24T00:16:06;10.17;;;3.67;;
15112;SDS011;7657;50.140;7.076;2022-12-24T00:18:33;8.57;;;3.20;;
15112;SDS011;7657;50.140;7.076;2022-12-24T00:21:00;16.50;;;7.53;;
15112;SDS011;7657;50.140;7.076;2022-12-24T00:23:28;17.43;;;5.70;;
15112;SDS011;7657;50.140;7.076;2022-12-24T00:25:56;13.37;;;4.50;;
15112;SDS011;7657;50.140;7.076;2022-12-24T00:28:23;21.47;;;9.73;;
15112;SDS011;7657;50.140;7.076;2022-12-24T00:30:50;14.97;;;3.90;;
15112;SDS011;7657;50.140;7.076;2022-12-24T00:33:17;12.73;;;3.27;;
15112;SDS011;7657;50.140;7.076;2022-12-24T00:35:43;12.33;;;3.40;;
15112;SDS011;7657;50.140;7.076;2022-12-24T00:38:14;10.93;;;4.57;;
15112;SDS011;7657;50.140;7.076;2022-12-24T00:40:41;10.30;;;4.17;;
15112;SDS011;7657;50.140;7.076;2022-12-24T00:43:09;14.07;;;3.58;;
15112;SDS011;7657;50.140;7.076;2022-12-24T00:45:36;10.63;;;2.80;;
15112;SDS011;7657;50.140;7.076;2022-12-24T00:48:03;9.77;;;3.00;;
15112;SDS011;7657;50.140;7.076;2022-12-24T00:50:30;17.07;;;4.07;;
15112;SDS011;7657;50.140;7.076;2022-12-24T00:52:57;11.63;;;4.10;;
15112;SDS011;7657;50.140;7.076;2022-12-24T00:55:24;8.73;;;2.90;;
15112;SDS011;7657;50.140;7.076;2022-12-24T00:57:51;11.63;;;2.97;;
15112;SDS011;7657;50.140;7.076;2022-12-24T01:00:19;9.70;;;3.10;;
15112;SDS011;7657;50.140;7.076;2022-12-24T01:02:46;15.43;;;4.60;;
15112;SDS011;7657;50.140;7.076;2022-12-24T01:05:13;10.60;;;3.67;;
15112;SDS011;7657;50.140;7.076;2022-12-24T01:07:40;13.60;;;4.17;;
15112;SDS011;7657;50.140;7.076;2022-12-24T01:10:09;13.07;;;3.63;;
15112;SDS011;7657;50.140;7.076;2022-12-24T01:12:37;12.43;;;3.30;;
15112;SDS011;7657;50.140;7.076;2022-12-24T01:15:04;10.20;;;3.30;;
15112;SDS011;7657;50.140;7.076;2022-12-24T01:17:32;14.18;;;4.65;;
15112;SDS011;7657;50.140;7.076;2022-12-24T01:20:00;12.60;;;2.72;;
15112;SDS011;7657;50.140;7.076;2022-12-24T01:22:28;12.98;;;2.75;;
15112;SDS011;7657;50.140;7.076;2022-12-24T01:24:55;16.17;;;3.80;;
15112;SDS011;7657;50.140;7.076;2022-12-24T01:27:22;10.53;;;3.30;;
15112;SDS011;7657;50.140;7.076;2022-12-24T01:29:49;11.13;;;3.03;;
15112;SDS011;7657;50.140;7.076;2022-12-24T01:32:16;10.57;;;3.13;;
15112;SDS011;7657;50.140;7.076;2022-12-24T01:34:44;11.03;;;4.10;;
15112;SDS011;7657;50.140;7.076;2022-12-24T01:37:11;12.80;;;3.15;;
15112;SDS011;7657;50.140;7.076;2022-12-24T01:39:38;12.67;;;3.60;;
15112;SDS011;7657;50.140;7.076;2022-12-24T01:42:11;14.77;;;3.20;;
15112;SDS011;7657;50.140;7.076;2022-12-24T01:48:08;12.27;;;3.00;;
15112;SDS011;7657;50.140;7.076;2022-12-24T01:50:46;8.77;;;2.67;;
15112;SDS011;7657;50.140;7.076;2022-12-24T01:53:15;11.63;;;2.93;;
15112;SDS011;7657;50.140;7.076;2022-12-24T01:55:43;12.60;;;2.90;;
15112;SDS011;7657;50.140;7.076;2022-12-24T01:58:11;13.43;;;2.70;;
15112;SDS011;7657;50.140;7.076;2022-12-24T02:00:41;12.23;;;2.80;;
15112;SDS011;7657;50.140;7.076;2022-12-24T02:03:07;10.17;;;2.70;;
15112;SDS011;7657;50.140;7.076;2022-12-24T02:05:35;11.87;;;2.63;;
15112;SDS011;7657;50.140;7.076;2022-12-24T02:08:12;15.37;;;3.40;;
15112;SDS011;7657;50.140;7.076;2022-12-24T02:10:40;11.87;;;2.90;;
15112;SDS011;7657;50.140;7.076;2022-12-24T02:13:06;9.13;;;2.20;;
15112;SDS011;7657;50.140;7.076;2022-12-24T02:15:37;11.53;;;2.40;;
15112;SDS011;7657;50.140;7.076;2022-12-24T02:18:14;12.37;;;3.20;;
15112;SDS011;7657;50.140;7.076;2022-12-24T02:29:59;9.90;;;2.40;;
15112;SDS011;7657;50.140;7.076;2022-12-24T02:32:40;8.63;;;2.67;;
15112;SDS011;7657;50.140;7.076;2022-12-24T02:35:26;10.67;;;2.30;;
15112;SDS011;7657;50.140;7.076;2022-12-24T02:38:02;12.17;;;3.30;;
15112;SDS011;7657;50.140;7.076;2022-12-24T02:40:34;9.82;;;2.63;;
15112;SDS011;7657;50.140;7.076;2022-12-24T02:43:04;11.80;;;2.80;;
15112;SDS011;7657;50.140;7.076;2022-12-24T02:45:37;7.83;;;2.10;;
15112;SDS011;7657;50.140;7.076;2022-12-24T02:48:07;15.03;;;2.80;;
15112;SDS011;7657;50.140;7.076;2022-12-24T02:50:35;10.67;;;2.43;;
15112;SDS011;7657;50.140;7.076;2022-12-24T02:53:02;10.60;;;2.50;;
15112;SDS011;7657;50.140;7.076;2022-12-24T02:55:33;11.77;;;2.40;;
15112;SDS011;7657;50.140;7.076;2022-12-24T02:58:14;10.17;;;2.50;;
15112;SDS011;7657;50.140;7.076;2022-12-24T03:00:57;9.53;;;2.73;;
15112;SDS011;7657;50.140;7.076;2022-12-24T03:03:42;12.43;;;2.97;;
15112;SDS011;7657;50.140;7.076;2022-12-24T03:06:28;10.30;;;2.80;;
15112;SDS011;7657;50.140;7.076;2022-12-24T03:09:05;10.93;;;2.90;;
15112;SDS011;7657;50.140;7.076;2022-12-24T03:11:39;8.52;;;2.58;;
15112;SDS011;7657;50.140;7.076;2022-12-24T03:14:11;9.35;;;2.55;;
15112;SDS011;7657;50.140;7.076;2022-12-24T03:16:41;11.60;;;2.93;;
15112;SDS011;7657;50.140;7.076;2022-12-24T03:19:08;14.87;;;3.10;;
15112;SDS011;7657;50.140;7.076;2022-12-24T03:21:37;8.03;;;2.73;;
15112;SDS011;7657;50.140;7.076;2022-12-24T03:24:06;14.87;;;2.97;;
15112;SDS011;7657;50.140;7.076;2022-12-24T03:26:34;10.03;;;2.87;;
15112;SDS011;7657;50.140;7.076;2022-12-24T03:29:03;12.23;;;3.30;;
15112;SDS011;7657;50.140;7.076;2022-12-24T03:31:38;15.23;;;3.23;;
15112;SDS011;7657;50.140;7.076;2022-12-24T03:34:11;15.07;;;3.77;;
15112;SDS011;7657;50.140;7.076;2022-12-24T03:36:39;19.30;;;5.53;;
15112;SDS011;7657;50.140;7.076;2022-12-24T03:39:06;13.23;;;3.08;;
15112;SDS011;7657;50.140;7.076;2022-12-24T03:41:34;10.80;;;3.73;;
15112;SDS011;7657;50.140;7.076;2022-12-24T03:44:01;15.23;;;5.40;;
15112;SDS011;7657;50.140;7.076;2022-12-24T03:46:29;9.87;;;2.33;;
15112;SDS011;7657;50.140;7.076;2022-12-24T03:48:57;18.13;;;5.57;;
15112;SDS011;7657;50.140;7.076;2022-12-24T03:51:24;14.77;;;4.10;;
15112;SDS011;7657;50.140;7.076;2022-12-24T03:53:52;13.27;;;3.53;;
15112;SDS011;7657;50.140;7.076;2022-12-24T03:56:19;10.75;;;3.30;;
15112;SDS011;7657;50.140;7.076;2022-12-24T03:58:47;15.90;;;3.30;;
15112;SDS011;7657;50.140;7.076;2022-12-24T04:01:14;12.60;;;3.90;;
15112;SDS011;7657;50.140;7.076;2022-12-24T04:03:42;13.50;;;4.32;;
15112;SDS011;7657;50.140;7.076;2022-12-24T04:06:12;12.13;;;3.58;;
15112;SDS011;7657;50.140;7.076;2022-12-24T04:08:41;14.87;;;4.47;;
15112;SDS011;7657;50.140;7.076;2022-12-24T04:11:09;9.32;;;2.60;;
15112;SDS011;7657;50.140;7.076;2022-12-24T04:13:38;13.45;;;3.70;;
15112;SDS011;7657;50.140;7.076;2022-12-24T04:16:05;15.13;;;3.30;;
15112;SDS011;7657;50.140;7.076;2022-12-24T04:18:33;17.80;;;4.87;;
15112;SDS011;7657;50.140;7.076;2022-12-24T04:21:01;8.75;;;2.55;;
15112;SDS011;7657;50.140;7.076;2022-12-24T04:23:30;8.88;;;2.95;;
15112;SDS011;7657;50.140;7.076;2022-12-24T04:25:58;9.02;;;3.08;;
15112;SDS011;7657;50.140;7.076;2022-12-24T04:28:25;10.70;;;3.03;;
15112;SDS011;7657;50.140;7.076;2022-12-24T04:30:56;12.68;;;2.83;;
15112;SDS011;7657;50.140;7.076;2022-12-24T04:33:23;10.85;;;3.25;;
15112;SDS011;7657;50.140;7.076;2022-12-24T04:35:50;12.95;;;3.50;;
15112;SDS011;7657;50.140;7.076;2022-12-24T04:38:17;20.65;;;7.78;;
15112;SDS011;7657;50.140;7.076;2022-12-24T04:40:46;14.20;;;3.60;;
15112;SDS011;7657;50.140;7.076;2022-12-24T04:43:13;14.52;;;3.22;;
15112;SDS011;7657;50.140;7.076;2022-12-24T04:45:40;11.10;;;3.30;;
15112;SDS011;7657;50.140;7.076;2022-12-24T04:48:07;14.73;;;3.40;;
15112;SDS011;7657;50.140;7.076;2022-12-24T04:50:33;12.70;;;3.30;;
15112;SDS011;7657;50.140;7.076;2022-12-24T04:53:00;11.63;;;3.53;;
15112;SDS011;7657;50.140;7.076;2022-12-24T04:55:27;10.70;;;3.03;;
15112;SDS011;7657;50.140;7.076;2022-12-24T04:57:55;9.45;;;2.80;;
15112;SDS011;7657;50.140;7.076;2022-12-24T05:00:22;15.63;;;3.58;;
15112;SDS011;7657;50.140;7.076;2022-12-24T05:02:49;14.65;;;3.53;;
15112;SDS011;7657;50.140;7.076;2022-12-24T05:05:16;14.55;;;3.50;;
15112;SDS011;7657;50.140;7.076;2022-12-24T05:07:43;13.05;;;4.97;;
15112;SDS011;7657;50.140;7.076;2022-12-24T05:10:10;15.80;;;3.78;;
15112;SDS011;7657;50.140;7.076;2022-12-24T05:12:37;12.43;;;2.85;;
15112;SDS011;7657;50.140;7.076;2022-12-24T05:15:05;16.27;;;3.83;;
15112;SDS011;7657;50.140;7.076;2022-12-24T05:17:33;12.77;;;4.65;;
15112;SDS011;7657;50.140;7.076;2022-12-24T05:19:59;12.82;;;3.17;;
15112;SDS011;7657;50.140;7.076;2022-12-24T05:22:26;12.15;;;3.10;;
15112;SDS011;7657;50.140;7.076;2022-12-24T05:25:10;12.75;;;4.78;;
15112;SDS011;7657;50.140;7.076;2022-12-24T05:27:55;14.40;;;3.75;;
15112;SDS011;7657;50.140;7.076;2022-12-24T05:30:23;12.57;;;3.00;;
15112;SDS011;7657;50.140;7.076;2022-12-24T05:32:50;13.40;;;3.57;;
15112;SDS011;7657;50.140;7.076;2022-12-24T05:35:17;12.10;;;2.78;;
15112;SDS011;7657;50.140;7.076;2022-12-24T05:37:44;13.50;;;3.25;;
15112;SDS011;7657;50.140;7.076;2022-12-24T05:40:11;19.35;;;6.18;;
15112;SDS011;7657;50.140;7.076;2022-12-24T05:42:38;14.85;;;4.00;;
15112;SDS011;7657;50.140;7.076;2022-12-24T05:45:05;17.60;;;4.50;;
15112;SDS011;7657;50.140;7.076;2022-12-24T05:47:34;13.95;;;3.70;;
15112;SDS011;7657;50.140;7.076;2022-12-24T05:50:01;15.65;;;3.90;;
15112;SDS011;7657;50.140;7.076;2022-12-24T05:52:28;18.23;;;5.60;;
15112;SDS011;7657;50.140;7.076;2022-12-24T05:54:55;17.25;;;4.05;;
15112;SDS011;7657;50.140;7.076;2022-12-24T05:57:22;12.15;;;3.03;;
15112;SDS011;7657;50.140;7.076;2022-12-24T05:59:49;18.95;;;4.22;;
15112;SDS011;7657;50.140;7.076;2022-12-24T06:02:16;19.65;;;3.47;;
15112;SDS011;7657;50.140;7.076;2022-12-24T06:04:44;16.23;;;4.10;;
15112;SDS011;7657;50.140;7.076;2022-12-24T06:07:11;13.13;;;3.90;;
15112;SDS011;7657;50.140;7.076;2022-12-24T06:09:38;13.77;;;3.63;;
15112;SDS011;7657;50.140;7.076;2022-12-24T06:12:05;16.83;;;3.50;;
15112;SDS011;7657;50.140;7.076;2022-12-24T06:14:32;12.90;;;3.33;;
15112;SDS011;7657;50.140;7.076;2022-12-24T06:16:59;14.53;;;3.33;;
15112;SDS011;7657;50.140;7.076;2022-12-24T06:19:25;13.53;;;3.57;;
15112;SDS011;7657;50.140;7.076;2022-12-24T06:21:54;21.63;;;3.95;;
15112;SDS011;7657;50.140;7.076;2022-12-24T06:24:21;18.55;;;3.70;;
15112;SDS011;7657;50.140;7.076;2022-12-24T06:26:48;14.67;;;3.47;;
15112;SDS011;7657;50.140;7.076;2022-12-24T06:29:14;16.23;;;4.30;;
15112;SDS011;7657;50.140;7.076;2022-12-24T06:31:41;17.37;;;3.50;;
15112;SDS011;7657;50.140;7.076;2022-12-24T06:34:08;20.80;;;6.13;;
15112;SDS011;7657;50.140;7.076;2022-12-24T06:36:35;13.57;;;3.83;;
15112;SDS011;7657;50.140;7.076;2022-12-24T06:39:03;16.80;;;4.00;;
15112;SDS011;7657;50.140;7.076;2022-12-24T06:41:30;12.63;;;3.70;;
15112;SDS011;7657;50.140;7.076;2022-12-24T06:43:57;19.42;;;3.95;;
15112;SDS011;7657;50.140;7.076;2022-12-24T06:46:24;15.20;;;4.00;;
15112;SDS011;7657;50.140;7.076;2022-12-24T06:48:51;16.90;;;3.37;;
15112;SDS011;7657;50.140;7.076;2022-12-24T06:51:19;16.23;;;3.40;;
15112;SDS011;7657;50.140;7.076;2022-12-24T06:53:46;22.57;;;8.63;;
15112;SDS011;7657;50.140;7.076;2022-12-24T06:56:16;17.40;;;7.13;;
15112;SDS011;7657;50.140;7.076;2022-12-24T06:58:44;28.67;;;16.37;;
15112;SDS011;7657;50.140;7.076;2022-12-24T07:01:12;20.90;;;7.20;;
15112;SDS011;7657;50.140;7.076;2022-12-24T07:03:41;20.10;;;6.18;;
15112;SDS011;7657;50.140;7.076;2022-12-24T07:06:09;21.73;;;10.48;;
15112;SDS011;7657;50.140;7.076;2022-12-24T07:08:41;21.17;;;5.00;;
15112;SDS011;7657;50.140;7.076;2022-12-24T07:11:08;20.73;;;8.57;;
15112;SDS011;7657;50.140;7.076;2022-12-24T07:13:36;12.67;;;3.40;;
15112;SDS011;7657;50.140;7.076;2022-12-24T07:16:03;16.17;;;6.13;;
15112;SDS011;7657;50.140;7.076;2022-12-24T07:18:30;18.67;;;4.80;;
15112;SDS011;7657;50.140;7.076;2022-12-24T07:20:57;18.40;;;6.73;;
15112;SDS011;7657;50.140;7.076;2022-12-24T07:23:24;13.67;;;3.57;;
15112;SDS011;7657;50.140;7.076;2022-12-24T07:25:51;12.80;;;4.30;;
15112;SDS011;7657;50.140;7.076;2022-12-24T07:28:18;11.37;;;4.27;;
15112;SDS011;7657;50.140;7.076;2022-12-24T07:30:47;14.63;;;4.40;;
15112;SDS011;7657;50.140;7.076;2022-12-24T07:33:13;10.10;;;3.42;;
15112;SDS011;7657;50.140;7.076;2022-12-24T07:35:40;11.20;;;4.07;;
15112;SDS011;7657;50.140;7.076;2022-12-24T07:38:07;15.93;;;5.67;;
15112;SDS011;7657;50.140;7.076;2022-12-24T07:40:34;14.87;;;3.03;;
15112;SDS011;7657;50.140;7.076;2022-12-24T07:43:01;19.13;;;12.13;;
15112;SDS011;7657;50.140;7.076;2022-12-24T07:45:28;23.47;;;13.27;;
15112;SDS011;7657;50.140;7.076;2022-12-24T07:47:56;34.17;;;21.77;;
15112;SDS011;7657;50.140;7.076;2022-12-24T07:50:23;44.30;;;26.70;;
15112;SDS011;7657;50.140;7.076;2022-12-24T07:52:50;50.60;;;30.23;;
15112;SDS011;7657;50.140;7.076;2022-12-24T07:55:17;72.27;;;42.90;;
15112;SDS011;7657;50.140;7.076;2022-12-24T07:57:44;34.33;;;18.03;;
15112;SDS011;7657;50.140;7.076;2022-12-24T08:00:11;56.00;;;31.43;;
15112;SDS011;7657;50.140;7.076;2022-12-24T08:02:38;41.37;;;20.70;;
15112;SDS011;7657;50.140;7.076;2022-12-24T08:05:07;58.03;;;32.73;;
15112;SDS011;7657;50.140;7.076;2022-12-24T08:07:34;24.47;;;11.03;;
15112;SDS011;7657;50.140;7.076;2022-12-24T08:10:01;19.40;;;7.47;;
15112;SDS011;7657;50.140;7.076;2022-12-24T08:12:28;12.50;;;3.97;;
15112;SDS011;7657;50.140;7.076;2022-12-24T08:14:55;13.27;;;3.80;;
15112;SDS011;7657;50.140;7.076;2022-12-24T08:17:22;15.73;;;3.60;;
15112;SDS011;7657;50.140;7.076;2022-12-24T08:19:49;13.23;;;3.30;;
15112;SDS011;7657;50.140;7.076;2022-12-24T08:22:17;9.90;;;3.77;;
15112;SDS011;7657;50.140;7.076;2022-12-24T08:24:44;10.77;;;3.37;;
15112;SDS011;7657;50.140;7.076;2022-12-24T08:27:11;9.87;;;3.13;;
15112;SDS011;7657;50.140;7.076;2022-12-24T08:29:38;8.33;;;2.27;;
15112;SDS011;7657;50.140;7.076;2022-12-24T08:32:04;6.50;;;2.17;;
15112;SDS011;7657;50.140;7.076;2022-12-24T08:34:31;8.43;;;2.57;;
15112;SDS011;7657;50.140;7.076;2022-12-24T08:36:58;11.37;;;2.37;;
15112;SDS011;7657;50.140;7.076;2022-12-24T08:39:26;14.00;;;3.00;;
15112;SDS011;7657;50.140;7.076;2022-12-24T08:41:54;25.53;;;14.10;;
15112;SDS011;7657;50.140;7.076;2022-12-24T08:44:21;18.67;;;8.37;;
15112;SDS011;7657;50.140;7.076;2022-12-24T08:46:48;14.40;;;4.47;;
15112;SDS011;7657;50.140;7.076;2022-12-24T08:49:15;19.13;;;7.83;;
15112;SDS011;7657;50.140;7.076;2022-12-24T08:51:42;34.97;;;17.03;;
15112;SDS011;7657;50.140;7.076;2022-12-24T08:54:08;27.20;;;11.53;;
15112;SDS011;7657;50.140;7.076;2022-12-24T08:56:37;17.77;;;4.60;;
15112;SDS011;7657;50.140;7.076;2022-12-24T08:59:03;66.87;;;32.17;;
15112;SDS011;7657;50.140;7.076;2022-12-24T09:01:31;126.77;;;61.57;;
15112;SDS011;7657;50.140;7.076;2022-12-24T09:04:00;50.73;;;22.13;;
15112;SDS011;7657;50.140;7.076;2022-12-24T09:06:27;179.03;;;83.60;;
15112;SDS011;7657;50.140;7.076;2022-12-24T09:08:54;144.67;;;69.40;;
15112;SDS011;7657;50.140;7.076;2022-12-24T09:11:22;67.03;;;30.57;;
15112;SDS011;7657;50.140;7.076;2022-12-24T09:13:50;26.93;;;10.60;;
15112;SDS011;7657;50.140;7.076;2022-12-24T09:16:17;25.00;;;7.90;;
15112;SDS011;7657;50.140;7.076;2022-12-24T09:18:44;17.13;;;5.73;;
15112;SDS011;7657;50.140;7.076;2022-12-24T09:21:12;19.63;;;8.93;;
15112;SDS011;7657;50.140;7.076;2022-12-24T09:23:42;21.87;;;8.40;;
15112;SDS011;7657;50.140;7.076;2022-12-24T09:26:11;20.83;;;8.13;;
15112;SDS011;7657;50.140;7.076;2022-12-24T09:28:40;26.20;;;9.77;;
15112;SDS011;7657;50.140;7.076;2022-12-24T09:31:09;18.27;;;4.30;;
15112;SDS011;7657;50.140;7.076;2022-12-24T09:33:37;20.20;;;6.87;;
15112;SDS011;7657;50.140;7.076;2022-12-24T09:36:06;16.60;;;4.73;;
15112;SDS011;7657;50.140;7.076;2022-12-24T09:38:33;22.87;;;8.17;;
15112;SDS011;7657;50.140;7.076;2022-12-24T09:41:01;20.00;;;7.35;;
15112;SDS011;7657;50.140;7.076;2022-12-24T09:43:37;20.80;;;6.93;;
15112;SDS011;7657;50.140;7.076;2022-12-24T09:46:05;16.30;;;6.55;;
15112;SDS011;7657;50.140;7.076;2022-12-24T09:48:39;18.33;;;4.88;;
15112;SDS011;7657;50.140;7.076;2022-12-24T09:51:15;20.95;;;7.57;;
15112;SDS011;7657;50.140;7.076;2022-12-24T09:53:50;17.10;;;6.72;;
15112;SDS011;7657;50.140;7.076;2022-12-24T09:56:21;34.45;;;17.48;;
15112;SDS011;7657;50.140;7.076;2022-12-24T09:58:52;17.75;;;3.97;;
15112;SDS011;7657;50.140;7.076;2022-12-24T10:01:23;16.70;;;4.65;;
15112;SDS011;7657;50.140;7.076;2022-12-24T10:03:50;21.58;;;8.43;;
15112;SDS011;7657;50.140;7.076;2022-12-24T10:06:18;15.63;;;5.22;;
15112;SDS011;7657;50.140;7.076;2022-12-24T10:08:52;18.30;;;5.60;;
15112;SDS011;7657;50.140;7.076;2022-12-24T10:11:29;11.88;;;3.90;;
15112;SDS011;7657;50.140;7.076;2022-12-24T10:14:08;14.02;;;3.78;;
15112;SDS011;7657;50.140;7.076;2022-12-24T10:16:50;13.45;;;3.58;;
15112;SDS011;7657;50.140;7.076;2022-12-24T10:19:24;12.85;;;3.80;;
15112;SDS011;7657;50.140;7.076;2022-12-24T10:21:59;14.38;;;4.05;;
15112;SDS011;7657;50.140;7.076;2022-12-24T10:24:34;15.15;;;3.50;;
15112;SDS011;7657;50.140;7.076;2022-12-24T10:27:10;15.45;;;4.15;;
15112;SDS011;7657;50.140;7.076;2022-12-24T10:29:41;12.43;;;3.47;;
15112;SDS011;7657;50.140;7.076;2022-12-24T10:32:14;11.95;;;3.20;;
15112;SDS011;7657;50.140;7.076;2022-12-24T10:34:48;10.00;;;3.20;;
15112;SDS011;7657;50.140;7.076;2022-12-24T10:37:21;15.18;;;5.00;;
15112;SDS011;7657;50.140;7.076;2022-12-24T10:39:49;12.43;;;3.40;;
15112;SDS011;7657;50.140;7.076;2022-12-24T10:42:17;12.55;;;3.60;;
15112;SDS011;7657;50.140;7.076;2022-12-24T10:44:46;13.35;;;4.82;;
15112;SDS011;7657;50.140;7.076;2022-12-24T10:47:18;14.98;;;3.00;;
15112;SDS011;7657;50.140;7.076;2022-12-24T10:49:47;8.75;;;3.95;;
15112;SDS011;7657;50.140;7.076;2022-12-24T10:52:20;11.40;;;3.50;;
15112;SDS011;7657;50.140;7.076;2022-12-24T10:55:03;11.18;;;3.95;;
15112;SDS011;7657;50.140;7.076;2022-12-24T10:57:33;13.73;;;4.10;;
15112;SDS011;7657;50.140;7.076;2022-12-24T11:00:00;17.13;;;4.63;;
15112;SDS011;7657;50.140;7.076;2022-12-24T11:02:29;11.10;;;3.67;;
15112;SDS011;7657;50.140;7.076;2022-12-24T11:04:58;16.77;;;5.47;;
15112;SDS011;7657;50.140;7.076;2022-12-24T11:07:27;14.40;;;6.28;;
15112;SDS011;7657;50.140;7.076;2022-12-24T11:09:56;14.05;;;3.33;;
15112;SDS011;7657;50.140;7.076;2022-12-24T11:12:24;10.63;;;3.00;;
15112;SDS011;7657;50.140;7.076;2022-12-24T11:15:01;12.55;;;3.80;;
15112;SDS011;7657;50.140;7.076;2022-12-24T11:17:31;16.35;;;3.67;;
15112;SDS011;7657;50.140;7.076;2022-12-24T11:19:58;21.38;;;8.75;;
15112;SDS011;7657;50.140;7.076;2022-12-24T11:22:27;11.48;;;3.55;;
15112;SDS011;7657;50.140;7.076;2022-12-24T11:24:57;16.58;;;4.22;;
15112;SDS011;7657;50.140;7.076;2022-12-24T11:27:28;9.20;;;3.50;;
15112;SDS011;7657;50.140;7.076;2022-12-24T11:35:42;12.63;;;4.45;;
15112;SDS011;7657;50.140;7.076;2022-12-24T11:38:16;11.02;;;3.50;;
15112;SDS011;7657;50.140;7.076;2022-12-24T11:40:45;12.00;;;4.40;;
15112;SDS011;7657;50.140;7.076;2022-12-24T11:43:14;11.85;;;4.60;;
15112;SDS011;7657;50.140;7.076;2022-12-24T11:45:46;12.85;;;3.35;;
15112;SDS011;7657;50.140;7.076;2022-12-24T11:48:27;13.10;;;4.10;;
15112;SDS011;7657;50.140;7.076;2022-12-24T11:50:57;29.63;;;12.35;;
15112;SDS011;7657;50.140;7.076;2022-12-24T11:53:26;10.90;;;3.67;;
15112;SDS011;7657;50.140;7.076;2022-12-24T11:55:59;24.45;;;13.27;;
15112;SDS011;7657;50.140;7.076;2022-12-24T11:58:34;13.60;;;3.40;;
15112;SDS011;7657;50.140;7.076;2022-12-24T12:01:09;15.55;;;3.90;;
15112;SDS011;7657;50.140;7.076;2022-12-24T12:03:43;11.43;;;3.70;;
15112;SDS011;7657;50.140;7.076;2022-12-24T12:06:17;10.85;;;3.85;;
15112;SDS011;7657;50.140;7.076;2022-12-24T12:08:52;14.77;;;3.25;;
15112;SDS011;7657;50.140;7.076;2022-12-24T12:11:21;17.00;;;3.72;;
15112;SDS011;7657;50.140;7.076;2022-12-24T12:13:51;10.23;;;3.08;;
15112;SDS011;7657;50.140;7.076;2022-12-24T12:16:20;15.20;;;4.68;;
15112;SDS011;7657;50.140;7.076;2022-12-24T12:18:53;15.90;;;3.67;;
15112;SDS011;7657;50.140;7.076;2022-12-24T12:21:26;12.65;;;4.40;;
15112;SDS011;7657;50.140;7.076;2022-12-24T12:23:58;11.25;;;3.25;;
15112;SDS011;7657;50.140;7.076;2022-12-24T12:26:29;12.07;;;3.25;;
15112;SDS011;7657;50.140;7.076;2022-12-24T12:28:58;13.98;;;3.25;;
15112;SDS011;7657;50.140;7.076;2022-12-24T12:31:31;11.88;;;3.63;;
15112;SDS011;7657;50.140;7.076;2022-12-24T12:34:03;10.85;;;3.33;;
15112;SDS011;7657;50.140;7.076;2022-12-24T12:36:35;12.35;;;3.65;;
15112;SDS011;7657;50.140;7.076;2022-12-24T12:39:08;12.30;;;3.50;;
15112;SDS011;7657;50.140;7.076;2022-12-24T12:41:39;11.75;;;3.05;;
15112;SDS011;7657;50.140;7.076;2022-12-24T12:44:35;14.68;;;3.38;;
15112;SDS011;7657;50.140;7.076;2022-12-24T12:47:26;12.82;;;3.20;;
15112;SDS011;7657;50.140;7.076;2022-12-24T12:50:15;10.77;;;2.90;;
15112;SDS011;7657;50.140;7.076;2022-12-24T12:52:52;10.75;;;3.05;;
15112;SDS011;7657;50.140;7.076;2022-12-24T12:55:34;9.82;;;2.78;;
15112;SDS011;7657;50.140;7.076;2022-12-24T12:58:09;11.68;;;2.92;;
15112;SDS011;7657;50.140;7.076;2022-12-24T13:00:43;11.68;;;2.58;;
15112;SDS011;7657;50.140;7.076;2022-12-24T13:03:22;12.57;;;2.63;;
15112;SDS011;7657;50.140;7.076;2022-12-24T13:06:26;11.63;;;3.17;;
15112;SDS011;7657;50.140;7.076;2022-12-24T13:09:15;10.65;;;2.70;;
15112;SDS011;7657;50.140;7.076;2022-12-24T13:12:18;9.15;;;3.03;;
15112;SDS011;7657;50.140;7.076;2022-12-24T13:15:07;11.88;;;3.13;;
15112;SDS011;7657;50.140;7.076;2022-12-24T13:20:50;14.73;;;3.25;;
15112;SDS011;7657;50.140;7.076;2022-12-24T13:23:20;9.60;;;2.60;;
15112;SDS011;7657;50.140;7.076;2022-12-24T13:25:49;16.60;;;4.03;;
15112;SDS011;7657;50.140;7.076;2022-12-24T13:28:30;13.65;;;4.47;;
15112;SDS011;7657;50.140;7.076;2022-12-24T13:33:59;13.85;;;3.65;;
15112;SDS011;7657;50.140;7.076;2022-12-24T13:39:29;12.57;;;5.43;;
15112;SDS011;7657;50.140;7.076;2022-12-24T13:42:46;14.00;;;4.70;;
15112;SDS011;7657;50.140;7.076;2022-12-24T13:48:12;13.02;;;4.10;;
15112;SDS011;7657;50.140;7.076;2022-12-24T13:50:58;10.10;;;3.67;;
15112;SDS011;7657;50.140;7.076;2022-12-24T13:53:43;16.20;;;7.30;;
15112;SDS011;7657;50.140;7.076;2022-12-24T13:56:21;11.48;;;3.80;;
15112;SDS011;7657;50.140;7.076;2022-12-24T13:58:52;14.40;;;5.40;;
15112;SDS011;7657;50.140;7.076;2022-12-24T14:01:34;14.65;;;4.10;;
15112;SDS011;7657;50.140;7.076;2022-12-24T14:04:04;12.93;;;3.20;;
15112;SDS011;7657;50.140;7.076;2022-12-24T14:06:35;13.43;;;3.55;;
15112;SDS011;7657;50.140;7.076;2022-12-24T14:09:05;17.95;;;3.60;;
15112;SDS011;7657;50.140;7.076;2022-12-24T14:14:36;9.93;;;3.40;;
15112;SDS011;7657;50.140;7.076;2022-12-24T14:17:05;12.23;;;3.60;;
15112;SDS011;7657;50.140;7.076;2022-12-24T14:19:40;14.70;;;3.75;;
15112;SDS011;7657;50.140;7.076;2022-12-24T14:22:18;15.82;;;5.55;;
15112;SDS011;7657;50.140;7.076;2022-12-24T14:24:53;11.73;;;3.75;;
15112;SDS011;7657;50.140;7.076;2022-12-24T14:27:23;10.00;;;3.92;;
15112;SDS011;7657;50.140;7.076;2022-12-24T14:29:57;14.02;;;4.97;;
15112;SDS011;7657;50.140;7.076;2022-12-24T14:32:32;9.98;;;3.78;;
15112;SDS011;7657;50.140;7.076;2022-12-24T14:35:04;15.32;;;6.05;;
15112;SDS011;7657;50.140;7.076;2022-12-24T14:37:32;13.55;;;3.75;;
15112;SDS011;7657;50.140;7.076;2022-12-24T14:39:59;9.75;;;3.85;;
15112;SDS011;7657;50.140;7.076;2022-12-24T14:42:31;12.60;;;3.75;;
15112;SDS011;7657;50.140;7.076;2022-12-24T14:45:10;14.70;;;4.50;;
15112;SDS011;7657;50.140;7.076;2022-12-24T14:47:45;15.43;;;4.65;;
15112;SDS011;7657;50.140;7.076;2022-12-24T14:53:26;11.23;;;3.85;;
15112;SDS011;7657;50.140;7.076;2022-12-24T14:56:07;10.75;;;3.83;;
15112;SDS011;7657;50.140;7.076;2022-12-24T14:58:37;16.17;;;3.65;;
15112;SDS011;7657;50.140;7.076;2022-12-24T15:01:18;18.95;;;6.25;;
15112;SDS011;7657;50.140;7.076;2022-12-24T15:06:40;12.25;;;4.10;;
15112;SDS011;7657;50.140;7.076;2022-12-24T15:09:09;13.55;;;3.33;;
15112;SDS011;7657;50.140;7.076;2022-12-24T15:11:42;11.73;;;3.75;;
15112;SDS011;7657;50.140;7.076;2022-12-24T15:14:10;12.57;;;4.05;;
15112;SDS011;7657;50.140;7.076;2022-12-24T15:16:40;13.55;;;3.83;;
15112;SDS011;7657;50.140;7.076;2022-12-24T15:19:09;14.18;;;3.92;;
15112;SDS011;7657;50.140;7.076;2022-12-24T15:21:45;12.45;;;3.60;;
15112;SDS011;7657;50.140;7.076;2022-12-24T15:24:22;14.45;;;4.43;;
15112;SDS011;7657;50.140;7.076;2022-12-24T15:26:50;15.82;;;4.05;;
15112;SDS011;7657;50.140;7.076;2022-12-24T15:29:19;14.10;;;3.47;;
15112;SDS011;7657;50.140;7.076;2022-12-24T15:31:52;12.15;;;3.42;;
15112;SDS011;7657;50.140;7.076;2022-12-24T15:34:27;16.05;;;3.58;;
15112;SDS011;7657;50.140;7.076;2022-12-24T15:37:00;15.98;;;5.45;;
15112;SDS011;7657;50.140;7.076;2022-12-24T15:39:32;12.60;;;3.63;;
15112;SDS011;7657;50.140;7.076;2022-12-24T15:41:59;13.50;;;3.55;;
15112;SDS011;7657;50.140;7.076;2022-12-24T15:44:39;12.52;;;3.50;;
15112;SDS011;7657;50.140;7.076;2022-12-24T15:47:14;11.80;;;3.20;;